<?xml version="1.0" encoding="UTF-8" standalone="no" ?>
<gpx xmlns="http://www.topografix.com/GPX/1/1" xmlns:xsi="http://www.w3.org/2001/XMLSchema-instance" xsi:schemaLocation="http://www.topografix.com/GPX/1/1 http://www.topografix.com/GPX/1/1/gpx.xsd" version="1.1" creator="VisuGPX - https://www.visugpx.com">
  <metadata>
    <name>jeudi  19 novembre ste foi de jérusalem</name>
    <desc><![CDATA[Eglise-route- pont - barrage_ chemin_ lac- église]]></desc>
  </metadata>
  <trk>
    <name><![CDATA[ACTIVE LOG 001]]></name>
    <trkseg>
      <trkpt lat="44.25418" lon="0.6898">
        <ele>112.61157226562</ele>
        <time>2015-11-19T13:10:50Z</time>
      </trkpt>
      <trkpt lat="44.25411" lon="0.68975">
        <ele>111.65026855469</ele>
        <time>2015-11-19T13:10:52Z</time>
      </trkpt>
      <trkpt lat="44.25406" lon="0.68969">
        <ele>111.65026855469</ele>
        <time>2015-11-19T13:10:56Z</time>
      </trkpt>
      <trkpt lat="44.25404" lon="0.68966">
        <ele>111.16955566406</ele>
        <time>2015-11-19T13:10:58Z</time>
      </trkpt>
      <trkpt lat="44.25405" lon="0.68956">
        <ele>110.20825195312</ele>
        <time>2015-11-19T13:11:05Z</time>
      </trkpt>
      <trkpt lat="44.25396" lon="0.68948">
        <ele>107.80505371094</ele>
        <time>2015-11-19T13:11:15Z</time>
      </trkpt>
      <trkpt lat="44.25382" lon="0.68953">
        <ele>104.4404296875</ele>
        <time>2015-11-19T13:11:30Z</time>
      </trkpt>
      <trkpt lat="44.25378" lon="0.68957">
        <ele>102.037109375</ele>
        <time>2015-11-19T13:11:35Z</time>
      </trkpt>
      <trkpt lat="44.25366" lon="0.68974">
        <ele>97.23046875</ele>
        <time>2015-11-19T13:11:53Z</time>
      </trkpt>
      <trkpt lat="44.25343" lon="0.68995">
        <ele>93.865844726562</ele>
        <time>2015-11-19T13:12:17Z</time>
      </trkpt>
      <trkpt lat="44.25322" lon="0.69015">
        <ele>94.8271484375</ele>
        <time>2015-11-19T13:12:39Z</time>
      </trkpt>
      <trkpt lat="44.25305" lon="0.69032">
        <ele>93.385131835938</ele>
        <time>2015-11-19T13:12:57Z</time>
      </trkpt>
      <trkpt lat="44.25301" lon="0.69038">
        <ele>92.904541015625</ele>
        <time>2015-11-19T13:13:13Z</time>
      </trkpt>
      <trkpt lat="44.25301" lon="0.6905">
        <ele>92.423950195312</ele>
        <time>2015-11-19T13:13:23Z</time>
      </trkpt>
      <trkpt lat="44.25316" lon="0.69077">
        <ele>83.77197265625</ele>
        <time>2015-11-19T13:13:40Z</time>
      </trkpt>
      <trkpt lat="44.25318" lon="0.69082">
        <ele>82.810791015625</ele>
        <time>2015-11-19T13:13:43Z</time>
      </trkpt>
      <trkpt lat="44.2532" lon="0.69089">
        <ele>80.88818359375</ele>
        <time>2015-11-19T13:13:48Z</time>
      </trkpt>
      <trkpt lat="44.25331" lon="0.69125">
        <ele>73.67822265625</ele>
        <time>2015-11-19T13:14:14Z</time>
      </trkpt>
      <trkpt lat="44.25343" lon="0.69151">
        <ele>72.716918945312</ele>
        <time>2015-11-19T13:14:35Z</time>
      </trkpt>
      <trkpt lat="44.25362" lon="0.69179">
        <ele>73.197631835938</ele>
        <time>2015-11-19T13:15:01Z</time>
      </trkpt>
      <trkpt lat="44.25374" lon="0.69207">
        <ele>75.600830078125</ele>
        <time>2015-11-19T13:15:24Z</time>
      </trkpt>
      <trkpt lat="44.2537" lon="0.69222">
        <ele>80.407470703125</ele>
        <time>2015-11-19T13:15:39Z</time>
      </trkpt>
      <trkpt lat="44.25361" lon="0.69239">
        <ele>80.88818359375</ele>
        <time>2015-11-19T13:15:57Z</time>
      </trkpt>
      <trkpt lat="44.25353" lon="0.69254">
        <ele>78.965454101562</ele>
        <time>2015-11-19T13:16:11Z</time>
      </trkpt>
      <trkpt lat="44.25353" lon="0.69259">
        <ele>78.484741210938</ele>
        <time>2015-11-19T13:16:14Z</time>
      </trkpt>
      <trkpt lat="44.25353" lon="0.69263">
        <ele>78.484741210938</ele>
        <time>2015-11-19T13:16:16Z</time>
      </trkpt>
      <trkpt lat="44.25364" lon="0.69284">
        <ele>76.562133789062</ele>
        <time>2015-11-19T13:16:31Z</time>
      </trkpt>
      <trkpt lat="44.2539" lon="0.69298">
        <ele>72.236206054688</ele>
        <time>2015-11-19T13:16:55Z</time>
      </trkpt>
      <trkpt lat="44.25417" lon="0.6932">
        <ele>70.794189453125</ele>
        <time>2015-11-19T13:17:23Z</time>
      </trkpt>
      <trkpt lat="44.2542" lon="0.69323">
        <ele>70.794189453125</ele>
        <time>2015-11-19T13:17:26Z</time>
      </trkpt>
      <trkpt lat="44.25423" lon="0.69324">
        <ele>70.3134765625</ele>
        <time>2015-11-19T13:17:30Z</time>
      </trkpt>
      <trkpt lat="44.25434" lon="0.69348">
        <ele>67.910278320312</ele>
        <time>2015-11-19T13:17:48Z</time>
      </trkpt>
      <trkpt lat="44.25448" lon="0.69368">
        <ele>68.87158203125</ele>
        <time>2015-11-19T13:18:04Z</time>
      </trkpt>
      <trkpt lat="44.2545" lon="0.69374">
        <ele>68.87158203125</ele>
        <time>2015-11-19T13:18:08Z</time>
      </trkpt>
      <trkpt lat="44.25456" lon="0.69382">
        <ele>68.87158203125</ele>
        <time>2015-11-19T13:18:14Z</time>
      </trkpt>
      <trkpt lat="44.25463" lon="0.69395">
        <ele>66.46826171875</ele>
        <time>2015-11-19T13:18:24Z</time>
      </trkpt>
      <trkpt lat="44.25481" lon="0.69416">
        <ele>64.545654296875</ele>
        <time>2015-11-19T13:18:43Z</time>
      </trkpt>
      <trkpt lat="44.25485" lon="0.69421">
        <ele>65.987670898438</ele>
        <time>2015-11-19T13:18:48Z</time>
      </trkpt>
      <trkpt lat="44.25487" lon="0.69425">
        <ele>66.46826171875</ele>
        <time>2015-11-19T13:18:50Z</time>
      </trkpt>
      <trkpt lat="44.25498" lon="0.69437">
        <ele>68.87158203125</ele>
        <time>2015-11-19T13:19:03Z</time>
      </trkpt>
      <trkpt lat="44.25508" lon="0.69448">
        <ele>66.948974609375</ele>
        <time>2015-11-19T13:19:13Z</time>
      </trkpt>
      <trkpt lat="44.25524" lon="0.69468">
        <ele>63.103637695312</ele>
        <time>2015-11-19T13:19:31Z</time>
      </trkpt>
      <trkpt lat="44.25544" lon="0.69495">
        <ele>65.0263671875</ele>
        <time>2015-11-19T13:19:55Z</time>
      </trkpt>
      <trkpt lat="44.25566" lon="0.69524">
        <ele>65.507080078125</ele>
        <time>2015-11-19T13:20:21Z</time>
      </trkpt>
      <trkpt lat="44.25588" lon="0.69551">
        <ele>65.507080078125</ele>
        <time>2015-11-19T13:20:46Z</time>
      </trkpt>
      <trkpt lat="44.25608" lon="0.69575">
        <ele>62.622924804688</ele>
        <time>2015-11-19T13:21:09Z</time>
      </trkpt>
      <trkpt lat="44.25629" lon="0.69601">
        <ele>63.103637695312</ele>
        <time>2015-11-19T13:21:33Z</time>
      </trkpt>
      <trkpt lat="44.2564" lon="0.69615">
        <ele>62.622924804688</ele>
        <time>2015-11-19T13:21:47Z</time>
      </trkpt>
      <trkpt lat="44.25668" lon="0.69648">
        <ele>62.142333984375</ele>
        <time>2015-11-19T13:22:18Z</time>
      </trkpt>
      <trkpt lat="44.25694" lon="0.69674">
        <ele>60.700317382812</ele>
        <time>2015-11-19T13:22:45Z</time>
      </trkpt>
      <trkpt lat="44.25724" lon="0.697">
        <ele>61.181030273438</ele>
        <time>2015-11-19T13:23:15Z</time>
      </trkpt>
      <trkpt lat="44.25745" lon="0.6972">
        <ele>61.661743164062</ele>
        <time>2015-11-19T13:23:37Z</time>
      </trkpt>
      <trkpt lat="44.25774" lon="0.69747">
        <ele>61.661743164062</ele>
        <time>2015-11-19T13:24:07Z</time>
      </trkpt>
      <trkpt lat="44.25799" lon="0.69774">
        <ele>61.181030273438</ele>
        <time>2015-11-19T13:24:35Z</time>
      </trkpt>
      <trkpt lat="44.25822" lon="0.69799">
        <ele>61.661743164062</ele>
        <time>2015-11-19T13:25:02Z</time>
      </trkpt>
      <trkpt lat="44.25846" lon="0.69822">
        <ele>64.545654296875</ele>
        <time>2015-11-19T13:25:29Z</time>
      </trkpt>
      <trkpt lat="44.25857" lon="0.69832">
        <ele>64.065063476562</ele>
        <time>2015-11-19T13:25:50Z</time>
      </trkpt>
      <trkpt lat="44.25853" lon="0.69846">
        <ele>65.507080078125</ele>
        <time>2015-11-19T13:26:21Z</time>
      </trkpt>
      <trkpt lat="44.2584" lon="0.69877">
        <ele>63.584350585938</ele>
        <time>2015-11-19T13:26:43Z</time>
      </trkpt>
      <trkpt lat="44.25832" lon="0.69898">
        <ele>65.0263671875</ele>
        <time>2015-11-19T13:26:58Z</time>
      </trkpt>
      <trkpt lat="44.25823" lon="0.69918">
        <ele>64.065063476562</ele>
        <time>2015-11-19T13:27:12Z</time>
      </trkpt>
      <trkpt lat="44.25816" lon="0.69939">
        <ele>67.4296875</ele>
        <time>2015-11-19T13:27:28Z</time>
      </trkpt>
      <trkpt lat="44.25815" lon="0.69942">
        <ele>67.910278320312</ele>
        <time>2015-11-19T13:27:30Z</time>
      </trkpt>
      <trkpt lat="44.25811" lon="0.69962">
        <ele>69.352294921875</ele>
        <time>2015-11-19T13:27:45Z</time>
      </trkpt>
      <trkpt lat="44.25826" lon="0.69986">
        <ele>66.46826171875</ele>
        <time>2015-11-19T13:28:07Z</time>
      </trkpt>
      <trkpt lat="44.25837" lon="0.70007">
        <ele>65.507080078125</ele>
        <time>2015-11-19T13:28:25Z</time>
      </trkpt>
      <trkpt lat="44.25847" lon="0.70037">
        <ele>65.987670898438</ele>
        <time>2015-11-19T13:28:48Z</time>
      </trkpt>
      <trkpt lat="44.25856" lon="0.70069">
        <ele>67.4296875</ele>
        <time>2015-11-19T13:29:12Z</time>
      </trkpt>
      <trkpt lat="44.25867" lon="0.70093">
        <ele>66.46826171875</ele>
        <time>2015-11-19T13:29:31Z</time>
      </trkpt>
      <trkpt lat="44.25878" lon="0.70126">
        <ele>65.987670898438</ele>
        <time>2015-11-19T13:29:56Z</time>
      </trkpt>
      <trkpt lat="44.2588" lon="0.7016">
        <ele>64.545654296875</ele>
        <time>2015-11-19T13:30:22Z</time>
      </trkpt>
      <trkpt lat="44.25879" lon="0.70195">
        <ele>68.87158203125</ele>
        <time>2015-11-19T13:30:47Z</time>
      </trkpt>
      <trkpt lat="44.25887" lon="0.70223">
        <ele>68.87158203125</ele>
        <time>2015-11-19T13:31:08Z</time>
      </trkpt>
      <trkpt lat="44.25893" lon="0.70245">
        <ele>71.27490234375</ele>
        <time>2015-11-19T13:31:32Z</time>
      </trkpt>
      <trkpt lat="44.25898" lon="0.70262">
        <ele>74.639526367188</ele>
        <time>2015-11-19T13:31:47Z</time>
      </trkpt>
      <trkpt lat="44.25902" lon="0.70276">
        <ele>76.081420898438</ele>
        <time>2015-11-19T13:31:57Z</time>
      </trkpt>
      <trkpt lat="44.25904" lon="0.70304">
        <ele>83.77197265625</ele>
        <time>2015-11-19T13:32:19Z</time>
      </trkpt>
      <trkpt lat="44.25901" lon="0.70335">
        <ele>83.77197265625</ele>
        <time>2015-11-19T13:32:40Z</time>
      </trkpt>
      <trkpt lat="44.25903" lon="0.70338">
        <ele>83.291381835938</ele>
        <time>2015-11-19T13:32:43Z</time>
      </trkpt>
      <trkpt lat="44.25921" lon="0.70357">
        <ele>74.639526367188</ele>
        <time>2015-11-19T13:33:02Z</time>
      </trkpt>
      <trkpt lat="44.25928" lon="0.70367">
        <ele>72.236206054688</ele>
        <time>2015-11-19T13:33:11Z</time>
      </trkpt>
      <trkpt lat="44.25932" lon="0.70386">
        <ele>72.236206054688</ele>
        <time>2015-11-19T13:33:28Z</time>
      </trkpt>
      <trkpt lat="44.2593" lon="0.7039">
        <ele>71.755493164062</ele>
        <time>2015-11-19T13:33:32Z</time>
      </trkpt>
      <trkpt lat="44.25914" lon="0.70404">
        <ele>70.794189453125</ele>
        <time>2015-11-19T13:33:52Z</time>
      </trkpt>
      <trkpt lat="44.25899" lon="0.70414">
        <ele>72.716918945312</ele>
        <time>2015-11-19T13:34:10Z</time>
      </trkpt>
      <trkpt lat="44.25888" lon="0.70433">
        <ele>75.120239257812</ele>
        <time>2015-11-19T13:34:34Z</time>
      </trkpt>
      <trkpt lat="44.25893" lon="0.70442">
        <ele>75.120239257812</ele>
        <time>2015-11-19T13:34:43Z</time>
      </trkpt>
      <trkpt lat="44.25912" lon="0.70471">
        <ele>69.832885742188</ele>
        <time>2015-11-19T13:35:08Z</time>
      </trkpt>
      <trkpt lat="44.25917" lon="0.70476">
        <ele>69.352294921875</ele>
        <time>2015-11-19T13:35:14Z</time>
      </trkpt>
      <trkpt lat="44.25936" lon="0.70501">
        <ele>65.987670898438</ele>
        <time>2015-11-19T13:35:37Z</time>
      </trkpt>
      <trkpt lat="44.25947" lon="0.70527">
        <ele>65.507080078125</ele>
        <time>2015-11-19T13:35:58Z</time>
      </trkpt>
      <trkpt lat="44.25955" lon="0.70544">
        <ele>64.545654296875</ele>
        <time>2015-11-19T13:36:12Z</time>
      </trkpt>
      <trkpt lat="44.25964" lon="0.70565">
        <ele>64.545654296875</ele>
        <time>2015-11-19T13:36:29Z</time>
      </trkpt>
      <trkpt lat="44.25975" lon="0.70593">
        <ele>64.065063476562</ele>
        <time>2015-11-19T13:36:50Z</time>
      </trkpt>
      <trkpt lat="44.25986" lon="0.7062">
        <ele>63.103637695312</ele>
        <time>2015-11-19T13:37:13Z</time>
      </trkpt>
      <trkpt lat="44.25988" lon="0.70623">
        <ele>63.103637695312</ele>
        <time>2015-11-19T13:37:15Z</time>
      </trkpt>
      <trkpt lat="44.25992" lon="0.70628">
        <ele>64.065063476562</ele>
        <time>2015-11-19T13:37:22Z</time>
      </trkpt>
      <trkpt lat="44.26007" lon="0.7066">
        <ele>63.103637695312</ele>
        <time>2015-11-19T13:37:48Z</time>
      </trkpt>
      <trkpt lat="44.26017" lon="0.70682">
        <ele>63.103637695312</ele>
        <time>2015-11-19T13:38:08Z</time>
      </trkpt>
      <trkpt lat="44.26027" lon="0.70707">
        <ele>62.622924804688</ele>
        <time>2015-11-19T13:38:28Z</time>
      </trkpt>
      <trkpt lat="44.2604" lon="0.70742">
        <ele>62.622924804688</ele>
        <time>2015-11-19T13:38:55Z</time>
      </trkpt>
      <trkpt lat="44.26059" lon="0.70773">
        <ele>61.181030273438</ele>
        <time>2015-11-19T13:39:21Z</time>
      </trkpt>
      <trkpt lat="44.26067" lon="0.70786">
        <ele>61.661743164062</ele>
        <time>2015-11-19T13:39:31Z</time>
      </trkpt>
      <trkpt lat="44.26096" lon="0.70808">
        <ele>61.181030273438</ele>
        <time>2015-11-19T13:40:00Z</time>
      </trkpt>
      <trkpt lat="44.26123" lon="0.70817">
        <ele>64.545654296875</ele>
        <time>2015-11-19T13:40:22Z</time>
      </trkpt>
      <trkpt lat="44.26139" lon="0.7083">
        <ele>65.0263671875</ele>
        <time>2015-11-19T13:40:40Z</time>
      </trkpt>
      <trkpt lat="44.26143" lon="0.70833">
        <ele>64.545654296875</ele>
        <time>2015-11-19T13:40:45Z</time>
      </trkpt>
      <trkpt lat="44.26145" lon="0.70835">
        <ele>65.0263671875</ele>
        <time>2015-11-19T13:40:48Z</time>
      </trkpt>
      <trkpt lat="44.26168" lon="0.70873">
        <ele>63.584350585938</ele>
        <time>2015-11-19T13:41:22Z</time>
      </trkpt>
      <trkpt lat="44.26178" lon="0.70912">
        <ele>64.065063476562</ele>
        <time>2015-11-19T13:41:51Z</time>
      </trkpt>
      <trkpt lat="44.26182" lon="0.7095">
        <ele>65.0263671875</ele>
        <time>2015-11-19T13:42:17Z</time>
      </trkpt>
      <trkpt lat="44.26196" lon="0.70984">
        <ele>65.507080078125</ele>
        <time>2015-11-19T13:42:42Z</time>
      </trkpt>
      <trkpt lat="44.26213" lon="0.71008">
        <ele>66.46826171875</ele>
        <time>2015-11-19T13:43:05Z</time>
      </trkpt>
      <trkpt lat="44.26211" lon="0.7101">
        <ele>67.4296875</ele>
        <time>2015-11-19T13:43:30Z</time>
      </trkpt>
      <trkpt lat="44.2621" lon="0.71009">
        <ele>69.352294921875</ele>
        <time>2015-11-19T13:43:56Z</time>
      </trkpt>
      <trkpt lat="44.262" lon="0.71019">
        <ele>69.352294921875</ele>
        <time>2015-11-19T13:45:04Z</time>
      </trkpt>
      <trkpt lat="44.26199" lon="0.71019">
        <ele>69.352294921875</ele>
        <time>2015-11-19T13:45:05Z</time>
      </trkpt>
      <trkpt lat="44.26177" lon="0.71025">
        <ele>69.352294921875</ele>
        <time>2015-11-19T13:45:29Z</time>
      </trkpt>
      <trkpt lat="44.26165" lon="0.71026">
        <ele>70.794189453125</ele>
        <time>2015-11-19T13:45:46Z</time>
      </trkpt>
      <trkpt lat="44.2615" lon="0.7103">
        <ele>76.081420898438</ele>
        <time>2015-11-19T13:46:11Z</time>
      </trkpt>
      <trkpt lat="44.26141" lon="0.7103">
        <ele>78.004028320312</ele>
        <time>2015-11-19T13:46:28Z</time>
      </trkpt>
      <trkpt lat="44.26136" lon="0.71028">
        <ele>78.004028320312</ele>
        <time>2015-11-19T13:46:40Z</time>
      </trkpt>
      <trkpt lat="44.26125" lon="0.71029">
        <ele>81.368774414062</ele>
        <time>2015-11-19T13:46:58Z</time>
      </trkpt>
      <trkpt lat="44.26111" lon="0.71029">
        <ele>85.213989257812</ele>
        <time>2015-11-19T13:47:18Z</time>
      </trkpt>
      <trkpt lat="44.26104" lon="0.7103">
        <ele>87.136596679688</ele>
        <time>2015-11-19T13:47:34Z</time>
      </trkpt>
      <trkpt lat="44.26095" lon="0.71037">
        <ele>89.539916992188</ele>
        <time>2015-11-19T13:47:52Z</time>
      </trkpt>
      <trkpt lat="44.2609" lon="0.71043">
        <ele>88.578735351562</ele>
        <time>2015-11-19T13:48:07Z</time>
      </trkpt>
      <trkpt lat="44.26081" lon="0.71048">
        <ele>90.020629882812</ele>
        <time>2015-11-19T13:48:23Z</time>
      </trkpt>
      <trkpt lat="44.26068" lon="0.71057">
        <ele>94.8271484375</ele>
        <time>2015-11-19T13:48:43Z</time>
      </trkpt>
      <trkpt lat="44.26054" lon="0.71064">
        <ele>97.711181640625</ele>
        <time>2015-11-19T13:49:03Z</time>
      </trkpt>
      <trkpt lat="44.26045" lon="0.71067">
        <ele>97.711181640625</ele>
        <time>2015-11-19T13:49:21Z</time>
      </trkpt>
      <trkpt lat="44.26025" lon="0.71079">
        <ele>97.23046875</ele>
        <time>2015-11-19T13:49:47Z</time>
      </trkpt>
      <trkpt lat="44.26005" lon="0.71089">
        <ele>99.153076171875</ele>
        <time>2015-11-19T13:50:15Z</time>
      </trkpt>
      <trkpt lat="44.25996" lon="0.71094">
        <ele>101.07568359375</ele>
        <time>2015-11-19T13:50:34Z</time>
      </trkpt>
      <trkpt lat="44.25982" lon="0.71102">
        <ele>102.51770019531</ele>
        <time>2015-11-19T13:50:54Z</time>
      </trkpt>
      <trkpt lat="44.25967" lon="0.71112">
        <ele>103.47900390625</ele>
        <time>2015-11-19T13:51:16Z</time>
      </trkpt>
      <trkpt lat="44.25949" lon="0.71122">
        <ele>106.36303710938</ele>
        <time>2015-11-19T13:51:43Z</time>
      </trkpt>
      <trkpt lat="44.25934" lon="0.71133">
        <ele>106.36303710938</ele>
        <time>2015-11-19T13:52:09Z</time>
      </trkpt>
      <trkpt lat="44.25927" lon="0.71142">
        <ele>107.32434082031</ele>
        <time>2015-11-19T13:52:28Z</time>
      </trkpt>
      <trkpt lat="44.25919" lon="0.71154">
        <ele>110.68884277344</ele>
        <time>2015-11-19T13:52:44Z</time>
      </trkpt>
      <trkpt lat="44.25909" lon="0.71165">
        <ele>113.57299804688</ele>
        <time>2015-11-19T13:53:05Z</time>
      </trkpt>
      <trkpt lat="44.25903" lon="0.71174">
        <ele>116.45678710938</ele>
        <time>2015-11-19T13:53:21Z</time>
      </trkpt>
      <trkpt lat="44.25894" lon="0.71181">
        <ele>119.82141113281</ele>
        <time>2015-11-19T13:53:39Z</time>
      </trkpt>
      <trkpt lat="44.25882" lon="0.71192">
        <ele>125.58935546875</ele>
        <time>2015-11-19T13:54:01Z</time>
      </trkpt>
      <trkpt lat="44.2588" lon="0.71195">
        <ele>127.03137207031</ele>
        <time>2015-11-19T13:54:05Z</time>
      </trkpt>
      <trkpt lat="44.25869" lon="0.71206">
        <ele>129.43469238281</ele>
        <time>2015-11-19T13:54:23Z</time>
      </trkpt>
      <trkpt lat="44.25859" lon="0.71215">
        <ele>132.79931640625</ele>
        <time>2015-11-19T13:54:40Z</time>
      </trkpt>
      <trkpt lat="44.25848" lon="0.71223">
        <ele>130.87670898438</ele>
        <time>2015-11-19T13:54:58Z</time>
      </trkpt>
      <trkpt lat="44.25842" lon="0.71231">
        <ele>133.27990722656</ele>
        <time>2015-11-19T13:55:13Z</time>
      </trkpt>
      <trkpt lat="44.25831" lon="0.71242">
        <ele>136.64465332031</ele>
        <time>2015-11-19T13:55:31Z</time>
      </trkpt>
      <trkpt lat="44.25828" lon="0.71246">
        <ele>136.16394042969</ele>
        <time>2015-11-19T13:55:37Z</time>
      </trkpt>
      <trkpt lat="44.25818" lon="0.71254">
        <ele>137.12524414062</ele>
        <time>2015-11-19T13:55:52Z</time>
      </trkpt>
      <trkpt lat="44.25809" lon="0.7126">
        <ele>138.08654785156</ele>
        <time>2015-11-19T13:56:03Z</time>
      </trkpt>
      <trkpt lat="44.25801" lon="0.71271">
        <ele>138.56726074219</ele>
        <time>2015-11-19T13:56:20Z</time>
      </trkpt>
      <trkpt lat="44.25784" lon="0.71282">
        <ele>141.45104980469</ele>
        <time>2015-11-19T13:56:41Z</time>
      </trkpt>
      <trkpt lat="44.25776" lon="0.71287">
        <ele>144.81579589844</ele>
        <time>2015-11-19T13:56:58Z</time>
      </trkpt>
      <trkpt lat="44.25772" lon="0.71292">
        <ele>146.73840332031</ele>
        <time>2015-11-19T13:57:16Z</time>
      </trkpt>
      <trkpt lat="44.25764" lon="0.713">
        <ele>149.62231445312</ele>
        <time>2015-11-19T13:57:33Z</time>
      </trkpt>
      <trkpt lat="44.25753" lon="0.71314">
        <ele>151.544921875</ele>
        <time>2015-11-19T13:57:55Z</time>
      </trkpt>
      <trkpt lat="44.25746" lon="0.71324">
        <ele>152.50634765625</ele>
        <time>2015-11-19T13:58:12Z</time>
      </trkpt>
      <trkpt lat="44.25746" lon="0.71336">
        <ele>151.544921875</ele>
        <time>2015-11-19T13:58:28Z</time>
      </trkpt>
      <trkpt lat="44.25739" lon="0.71353">
        <ele>153.46765136719</ele>
        <time>2015-11-19T13:58:49Z</time>
      </trkpt>
      <trkpt lat="44.25729" lon="0.71372">
        <ele>154.90954589844</ele>
        <time>2015-11-19T13:59:12Z</time>
      </trkpt>
      <trkpt lat="44.25723" lon="0.7138">
        <ele>156.83215332031</ele>
        <time>2015-11-19T13:59:27Z</time>
      </trkpt>
      <trkpt lat="44.25714" lon="0.71391">
        <ele>158.27416992188</ele>
        <time>2015-11-19T13:59:43Z</time>
      </trkpt>
      <trkpt lat="44.25707" lon="0.71404">
        <ele>160.67749023438</ele>
        <time>2015-11-19T14:00:00Z</time>
      </trkpt>
      <trkpt lat="44.25704" lon="0.71417">
        <ele>156.83215332031</ele>
        <time>2015-11-19T14:00:21Z</time>
      </trkpt>
      <trkpt lat="44.25701" lon="0.71417">
        <ele>156.3515625</ele>
        <time>2015-11-19T14:00:40Z</time>
      </trkpt>
      <trkpt lat="44.25699" lon="0.71419">
        <ele>155.87097167969</ele>
        <time>2015-11-19T14:01:18Z</time>
      </trkpt>
      <trkpt lat="44.25702" lon="0.71426">
        <ele>153.94836425781</ele>
        <time>2015-11-19T14:01:42Z</time>
      </trkpt>
      <trkpt lat="44.25706" lon="0.71452">
        <ele>150.10302734375</ele>
        <time>2015-11-19T14:02:08Z</time>
      </trkpt>
      <trkpt lat="44.25707" lon="0.71463">
        <ele>150.58361816406</ele>
        <time>2015-11-19T14:02:17Z</time>
      </trkpt>
      <trkpt lat="44.25711" lon="0.71486">
        <ele>147.69970703125</ele>
        <time>2015-11-19T14:02:35Z</time>
      </trkpt>
      <trkpt lat="44.25712" lon="0.71515">
        <ele>147.69970703125</ele>
        <time>2015-11-19T14:02:57Z</time>
      </trkpt>
      <trkpt lat="44.25714" lon="0.71535">
        <ele>148.18041992188</ele>
        <time>2015-11-19T14:03:12Z</time>
      </trkpt>
      <trkpt lat="44.25711" lon="0.71567">
        <ele>148.18041992188</ele>
        <time>2015-11-19T14:03:35Z</time>
      </trkpt>
      <trkpt lat="44.25719" lon="0.71591">
        <ele>146.2578125</ele>
        <time>2015-11-19T14:03:55Z</time>
      </trkpt>
      <trkpt lat="44.25728" lon="0.71627">
        <ele>146.73840332031</ele>
        <time>2015-11-19T14:04:21Z</time>
      </trkpt>
      <trkpt lat="44.25738" lon="0.7165">
        <ele>146.73840332031</ele>
        <time>2015-11-19T14:04:41Z</time>
      </trkpt>
      <trkpt lat="44.25751" lon="0.71673">
        <ele>146.2578125</ele>
        <time>2015-11-19T14:05:00Z</time>
      </trkpt>
      <trkpt lat="44.25765" lon="0.7169">
        <ele>146.73840332031</ele>
        <time>2015-11-19T14:05:18Z</time>
      </trkpt>
      <trkpt lat="44.25775" lon="0.71719">
        <ele>147.69970703125</ele>
        <time>2015-11-19T14:05:42Z</time>
      </trkpt>
      <trkpt lat="44.25792" lon="0.71737">
        <ele>146.2578125</ele>
        <time>2015-11-19T14:06:03Z</time>
      </trkpt>
      <trkpt lat="44.25811" lon="0.71753">
        <ele>146.2578125</ele>
        <time>2015-11-19T14:06:26Z</time>
      </trkpt>
      <trkpt lat="44.25823" lon="0.71766">
        <ele>146.2578125</ele>
        <time>2015-11-19T14:06:40Z</time>
      </trkpt>
      <trkpt lat="44.25837" lon="0.71771">
        <ele>145.29638671875</ele>
        <time>2015-11-19T14:06:57Z</time>
      </trkpt>
      <trkpt lat="44.25857" lon="0.71773">
        <ele>145.77709960938</ele>
        <time>2015-11-19T14:07:21Z</time>
      </trkpt>
      <trkpt lat="44.2586" lon="0.71777">
        <ele>145.29638671875</ele>
        <time>2015-11-19T14:07:27Z</time>
      </trkpt>
      <trkpt lat="44.25861" lon="0.71789">
        <ele>146.2578125</ele>
        <time>2015-11-19T14:07:39Z</time>
      </trkpt>
      <trkpt lat="44.25861" lon="0.71793">
        <ele>144.33520507812</ele>
        <time>2015-11-19T14:07:43Z</time>
      </trkpt>
      <trkpt lat="44.25859" lon="0.71807">
        <ele>145.77709960938</ele>
        <time>2015-11-19T14:07:58Z</time>
      </trkpt>
      <trkpt lat="44.2586" lon="0.71824">
        <ele>144.81579589844</ele>
        <time>2015-11-19T14:08:14Z</time>
      </trkpt>
      <trkpt lat="44.25872" lon="0.71825">
        <ele>142.41247558594</ele>
        <time>2015-11-19T14:08:32Z</time>
      </trkpt>
      <trkpt lat="44.25888" lon="0.71819">
        <ele>140.97045898438</ele>
        <time>2015-11-19T14:08:48Z</time>
      </trkpt>
      <trkpt lat="44.25909" lon="0.71806">
        <ele>140.97045898438</ele>
        <time>2015-11-19T14:09:09Z</time>
      </trkpt>
      <trkpt lat="44.25927" lon="0.718">
        <ele>137.60583496094</ele>
        <time>2015-11-19T14:09:28Z</time>
      </trkpt>
      <trkpt lat="44.25944" lon="0.71792">
        <ele>134.72192382812</ele>
        <time>2015-11-19T14:09:47Z</time>
      </trkpt>
      <trkpt lat="44.25957" lon="0.71777">
        <ele>130.39599609375</ele>
        <time>2015-11-19T14:10:08Z</time>
      </trkpt>
      <trkpt lat="44.25961" lon="0.71766">
        <ele>126.06994628906</ele>
        <time>2015-11-19T14:10:24Z</time>
      </trkpt>
      <trkpt lat="44.2597" lon="0.71752">
        <ele>122.22473144531</ele>
        <time>2015-11-19T14:10:57Z</time>
      </trkpt>
      <trkpt lat="44.25991" lon="0.71732">
        <ele>121.26354980469</ele>
        <time>2015-11-19T14:11:20Z</time>
      </trkpt>
      <trkpt lat="44.26007" lon="0.71717">
        <ele>118.86010742188</ele>
        <time>2015-11-19T14:11:37Z</time>
      </trkpt>
      <trkpt lat="44.26027" lon="0.71695">
        <ele>115.49560546875</ele>
        <time>2015-11-19T14:12:00Z</time>
      </trkpt>
      <trkpt lat="44.26049" lon="0.71673">
        <ele>113.09228515625</ele>
        <time>2015-11-19T14:12:25Z</time>
      </trkpt>
      <trkpt lat="44.26058" lon="0.71659">
        <ele>111.16955566406</ele>
        <time>2015-11-19T14:12:38Z</time>
      </trkpt>
      <trkpt lat="44.26071" lon="0.71638">
        <ele>106.84362792969</ele>
        <time>2015-11-19T14:12:56Z</time>
      </trkpt>
      <trkpt lat="44.26084" lon="0.71617">
        <ele>107.80505371094</ele>
        <time>2015-11-19T14:13:17Z</time>
      </trkpt>
      <trkpt lat="44.26087" lon="0.71611">
        <ele>108.28564453125</ele>
        <time>2015-11-19T14:13:22Z</time>
      </trkpt>
      <trkpt lat="44.26088" lon="0.71608">
        <ele>107.32434082031</ele>
        <time>2015-11-19T14:13:25Z</time>
      </trkpt>
      <trkpt lat="44.26102" lon="0.71592">
        <ele>105.40173339844</ele>
        <time>2015-11-19T14:13:43Z</time>
      </trkpt>
      <trkpt lat="44.26116" lon="0.71586">
        <ele>101.55639648438</ele>
        <time>2015-11-19T14:13:59Z</time>
      </trkpt>
      <trkpt lat="44.26124" lon="0.71578">
        <ele>99.6337890625</ele>
        <time>2015-11-19T14:14:09Z</time>
      </trkpt>
      <trkpt lat="44.26143" lon="0.71568">
        <ele>97.23046875</ele>
        <time>2015-11-19T14:14:31Z</time>
      </trkpt>
      <trkpt lat="44.26164" lon="0.71557">
        <ele>92.904541015625</ele>
        <time>2015-11-19T14:14:56Z</time>
      </trkpt>
      <trkpt lat="44.26195" lon="0.71541">
        <ele>86.656005859375</ele>
        <time>2015-11-19T14:15:29Z</time>
      </trkpt>
      <trkpt lat="44.26198" lon="0.71517">
        <ele>84.7333984375</ele>
        <time>2015-11-19T14:15:46Z</time>
      </trkpt>
      <trkpt lat="44.26192" lon="0.71502">
        <ele>82.810791015625</ele>
        <time>2015-11-19T14:15:56Z</time>
      </trkpt>
      <trkpt lat="44.2619" lon="0.71496">
        <ele>80.407470703125</ele>
        <time>2015-11-19T14:16:01Z</time>
      </trkpt>
      <trkpt lat="44.26187" lon="0.71469">
        <ele>76.081420898438</ele>
        <time>2015-11-19T14:16:16Z</time>
      </trkpt>
      <trkpt lat="44.26184" lon="0.71442">
        <ele>76.081420898438</ele>
        <time>2015-11-19T14:16:36Z</time>
      </trkpt>
      <trkpt lat="44.26183" lon="0.71438">
        <ele>77.042846679688</ele>
        <time>2015-11-19T14:16:38Z</time>
      </trkpt>
      <trkpt lat="44.26179" lon="0.71407">
        <ele>74.158813476562</ele>
        <time>2015-11-19T14:16:57Z</time>
      </trkpt>
      <trkpt lat="44.26177" lon="0.71373">
        <ele>73.67822265625</ele>
        <time>2015-11-19T14:17:18Z</time>
      </trkpt>
      <trkpt lat="44.26176" lon="0.71343">
        <ele>75.600830078125</ele>
        <time>2015-11-19T14:17:36Z</time>
      </trkpt>
      <trkpt lat="44.26173" lon="0.71305">
        <ele>75.120239257812</ele>
        <time>2015-11-19T14:18:01Z</time>
      </trkpt>
      <trkpt lat="44.26169" lon="0.71272">
        <ele>77.042846679688</ele>
        <time>2015-11-19T14:18:23Z</time>
      </trkpt>
      <trkpt lat="44.26162" lon="0.71236">
        <ele>78.484741210938</ele>
        <time>2015-11-19T14:18:46Z</time>
      </trkpt>
      <trkpt lat="44.26148" lon="0.71199">
        <ele>79.446044921875</ele>
        <time>2015-11-19T14:19:12Z</time>
      </trkpt>
      <trkpt lat="44.26146" lon="0.71196">
        <ele>79.446044921875</ele>
        <time>2015-11-19T14:19:15Z</time>
      </trkpt>
      <trkpt lat="44.26132" lon="0.71169">
        <ele>79.926635742188</ele>
        <time>2015-11-19T14:19:37Z</time>
      </trkpt>
      <trkpt lat="44.26123" lon="0.71133">
        <ele>83.291381835938</ele>
        <time>2015-11-19T14:20:04Z</time>
      </trkpt>
      <trkpt lat="44.26124" lon="0.7113">
        <ele>84.252685546875</ele>
        <time>2015-11-19T14:20:07Z</time>
      </trkpt>
      <trkpt lat="44.26131" lon="0.71103">
        <ele>80.407470703125</ele>
        <time>2015-11-19T14:20:29Z</time>
      </trkpt>
      <trkpt lat="44.26148" lon="0.71076">
        <ele>75.120239257812</ele>
        <time>2015-11-19T14:20:53Z</time>
      </trkpt>
      <trkpt lat="44.26162" lon="0.71054">
        <ele>72.236206054688</ele>
        <time>2015-11-19T14:21:13Z</time>
      </trkpt>
      <trkpt lat="44.26163" lon="0.71051">
        <ele>72.236206054688</ele>
        <time>2015-11-19T14:21:15Z</time>
      </trkpt>
      <trkpt lat="44.2617" lon="0.71035">
        <ele>69.832885742188</ele>
        <time>2015-11-19T14:21:27Z</time>
      </trkpt>
      <trkpt lat="44.26172" lon="0.71032">
        <ele>69.352294921875</ele>
        <time>2015-11-19T14:21:30Z</time>
      </trkpt>
      <trkpt lat="44.26195" lon="0.71021">
        <ele>70.3134765625</ele>
        <time>2015-11-19T14:21:52Z</time>
      </trkpt>
      <trkpt lat="44.26218" lon="0.71012">
        <ele>70.3134765625</ele>
        <time>2015-11-19T14:22:11Z</time>
      </trkpt>
      <trkpt lat="44.26223" lon="0.7101">
        <ele>69.832885742188</ele>
        <time>2015-11-19T14:22:17Z</time>
      </trkpt>
      <trkpt lat="44.26251" lon="0.71002">
        <ele>71.755493164062</ele>
        <time>2015-11-19T14:22:42Z</time>
      </trkpt>
      <trkpt lat="44.26263" lon="0.70997">
        <ele>72.236206054688</ele>
        <time>2015-11-19T14:22:55Z</time>
      </trkpt>
      <trkpt lat="44.26264" lon="0.70991">
        <ele>72.716918945312</ele>
        <time>2015-11-19T14:22:59Z</time>
      </trkpt>
      <trkpt lat="44.26253" lon="0.70964">
        <ele>72.716918945312</ele>
        <time>2015-11-19T14:23:16Z</time>
      </trkpt>
      <trkpt lat="44.26252" lon="0.70947">
        <ele>73.67822265625</ele>
        <time>2015-11-19T14:23:28Z</time>
      </trkpt>
      <trkpt lat="44.26252" lon="0.70922">
        <ele>71.755493164062</ele>
        <time>2015-11-19T14:23:45Z</time>
      </trkpt>
      <trkpt lat="44.26255" lon="0.70893">
        <ele>74.158813476562</ele>
        <time>2015-11-19T14:24:05Z</time>
      </trkpt>
      <trkpt lat="44.26256" lon="0.70886">
        <ele>74.158813476562</ele>
        <time>2015-11-19T14:24:11Z</time>
      </trkpt>
      <trkpt lat="44.26258" lon="0.70884">
        <ele>74.639526367188</ele>
        <time>2015-11-19T14:24:13Z</time>
      </trkpt>
      <trkpt lat="44.26263" lon="0.70869">
        <ele>76.081420898438</ele>
        <time>2015-11-19T14:24:26Z</time>
      </trkpt>
      <trkpt lat="44.26269" lon="0.7086">
        <ele>76.562133789062</ele>
        <time>2015-11-19T14:24:35Z</time>
      </trkpt>
      <trkpt lat="44.26289" lon="0.70845">
        <ele>75.120239257812</ele>
        <time>2015-11-19T14:24:53Z</time>
      </trkpt>
      <trkpt lat="44.26291" lon="0.70844">
        <ele>75.120239257812</ele>
        <time>2015-11-19T14:24:55Z</time>
      </trkpt>
      <trkpt lat="44.26294" lon="0.70839">
        <ele>76.081420898438</ele>
        <time>2015-11-19T14:25:01Z</time>
      </trkpt>
      <trkpt lat="44.26315" lon="0.70823">
        <ele>76.081420898438</ele>
        <time>2015-11-19T14:25:20Z</time>
      </trkpt>
      <trkpt lat="44.26326" lon="0.70815">
        <ele>75.600830078125</ele>
        <time>2015-11-19T14:25:31Z</time>
      </trkpt>
      <trkpt lat="44.26338" lon="0.7081">
        <ele>76.081420898438</ele>
        <time>2015-11-19T14:25:46Z</time>
      </trkpt>
      <trkpt lat="44.26352" lon="0.70809">
        <ele>77.042846679688</ele>
        <time>2015-11-19T14:25:55Z</time>
      </trkpt>
      <trkpt lat="44.2636" lon="0.70808">
        <ele>78.965454101562</ele>
        <time>2015-11-19T14:26:03Z</time>
      </trkpt>
      <trkpt lat="44.26372" lon="0.70806">
        <ele>78.484741210938</ele>
        <time>2015-11-19T14:26:15Z</time>
      </trkpt>
      <trkpt lat="44.26393" lon="0.70795">
        <ele>79.926635742188</ele>
        <time>2015-11-19T14:26:32Z</time>
      </trkpt>
      <trkpt lat="44.26412" lon="0.70785">
        <ele>78.484741210938</ele>
        <time>2015-11-19T14:26:49Z</time>
      </trkpt>
      <trkpt lat="44.26431" lon="0.70777">
        <ele>76.081420898438</ele>
        <time>2015-11-19T14:27:05Z</time>
      </trkpt>
      <trkpt lat="44.26437" lon="0.70773">
        <ele>76.081420898438</ele>
        <time>2015-11-19T14:27:09Z</time>
      </trkpt>
      <trkpt lat="44.26438" lon="0.70761">
        <ele>76.081420898438</ele>
        <time>2015-11-19T14:27:16Z</time>
      </trkpt>
      <trkpt lat="44.26436" lon="0.70737">
        <ele>74.639526367188</ele>
        <time>2015-11-19T14:27:35Z</time>
      </trkpt>
      <trkpt lat="44.2644" lon="0.70722">
        <ele>77.5234375</ele>
        <time>2015-11-19T14:27:48Z</time>
      </trkpt>
      <trkpt lat="44.26446" lon="0.70706">
        <ele>73.67822265625</ele>
        <time>2015-11-19T14:28:00Z</time>
      </trkpt>
      <trkpt lat="44.26456" lon="0.70708">
        <ele>74.639526367188</ele>
        <time>2015-11-19T14:28:10Z</time>
      </trkpt>
      <trkpt lat="44.26475" lon="0.70719">
        <ele>78.004028320312</ele>
        <time>2015-11-19T14:28:27Z</time>
      </trkpt>
      <trkpt lat="44.26487" lon="0.70713">
        <ele>77.042846679688</ele>
        <time>2015-11-19T14:28:39Z</time>
      </trkpt>
      <trkpt lat="44.2649" lon="0.70712">
        <ele>76.562133789062</ele>
        <time>2015-11-19T14:28:41Z</time>
      </trkpt>
      <trkpt lat="44.26507" lon="0.70706">
        <ele>73.197631835938</ele>
        <time>2015-11-19T14:28:57Z</time>
      </trkpt>
      <trkpt lat="44.26521" lon="0.70693">
        <ele>71.755493164062</ele>
        <time>2015-11-19T14:29:11Z</time>
      </trkpt>
      <trkpt lat="44.26539" lon="0.70692">
        <ele>75.120239257812</ele>
        <time>2015-11-19T14:29:27Z</time>
      </trkpt>
      <trkpt lat="44.26553" lon="0.70695">
        <ele>74.158813476562</ele>
        <time>2015-11-19T14:29:40Z</time>
      </trkpt>
      <trkpt lat="44.26568" lon="0.70698">
        <ele>77.042846679688</ele>
        <time>2015-11-19T14:29:56Z</time>
      </trkpt>
      <trkpt lat="44.26581" lon="0.70696">
        <ele>72.236206054688</ele>
        <time>2015-11-19T14:30:11Z</time>
      </trkpt>
      <trkpt lat="44.26585" lon="0.7067">
        <ele>75.120239257812</ele>
        <time>2015-11-19T14:30:26Z</time>
      </trkpt>
      <trkpt lat="44.26589" lon="0.70663">
        <ele>75.120239257812</ele>
        <time>2015-11-19T14:30:34Z</time>
      </trkpt>
      <trkpt lat="44.26599" lon="0.70647">
        <ele>73.197631835938</ele>
        <time>2015-11-19T14:30:50Z</time>
      </trkpt>
      <trkpt lat="44.26604" lon="0.70635">
        <ele>72.716918945312</ele>
        <time>2015-11-19T14:31:04Z</time>
      </trkpt>
      <trkpt lat="44.26607" lon="0.70624">
        <ele>72.236206054688</ele>
        <time>2015-11-19T14:31:18Z</time>
      </trkpt>
      <trkpt lat="44.26607" lon="0.70613">
        <ele>70.794189453125</ele>
        <time>2015-11-19T14:31:27Z</time>
      </trkpt>
      <trkpt lat="44.26606" lon="0.70589">
        <ele>72.236206054688</ele>
        <time>2015-11-19T14:31:45Z</time>
      </trkpt>
      <trkpt lat="44.26607" lon="0.70569">
        <ele>73.67822265625</ele>
        <time>2015-11-19T14:32:03Z</time>
      </trkpt>
      <trkpt lat="44.26605" lon="0.70555">
        <ele>76.562133789062</ele>
        <time>2015-11-19T14:32:12Z</time>
      </trkpt>
      <trkpt lat="44.2661" lon="0.70534">
        <ele>77.5234375</ele>
        <time>2015-11-19T14:32:29Z</time>
      </trkpt>
      <trkpt lat="44.26611" lon="0.70526">
        <ele>78.965454101562</ele>
        <time>2015-11-19T14:32:35Z</time>
      </trkpt>
      <trkpt lat="44.26615" lon="0.70515">
        <ele>77.5234375</ele>
        <time>2015-11-19T14:32:46Z</time>
      </trkpt>
      <trkpt lat="44.26622" lon="0.70493">
        <ele>77.042846679688</ele>
        <time>2015-11-19T14:33:03Z</time>
      </trkpt>
      <trkpt lat="44.2662" lon="0.70485">
        <ele>78.004028320312</ele>
        <time>2015-11-19T14:33:18Z</time>
      </trkpt>
      <trkpt lat="44.26622" lon="0.70475">
        <ele>79.446044921875</ele>
        <time>2015-11-19T14:33:36Z</time>
      </trkpt>
      <trkpt lat="44.26627" lon="0.70467">
        <ele>80.407470703125</ele>
        <time>2015-11-19T14:33:54Z</time>
      </trkpt>
      <trkpt lat="44.26636" lon="0.70463">
        <ele>82.330078125</ele>
        <time>2015-11-19T14:34:08Z</time>
      </trkpt>
      <trkpt lat="44.26641" lon="0.70453">
        <ele>84.252685546875</ele>
        <time>2015-11-19T14:34:20Z</time>
      </trkpt>
      <trkpt lat="44.26643" lon="0.70443">
        <ele>86.17529296875</ele>
        <time>2015-11-19T14:34:35Z</time>
      </trkpt>
      <trkpt lat="44.2665" lon="0.7043">
        <ele>86.656005859375</ele>
        <time>2015-11-19T14:34:49Z</time>
      </trkpt>
      <trkpt lat="44.26655" lon="0.70417">
        <ele>87.136596679688</ele>
        <time>2015-11-19T14:35:06Z</time>
      </trkpt>
      <trkpt lat="44.26662" lon="0.70398">
        <ele>90.020629882812</ele>
        <time>2015-11-19T14:35:23Z</time>
      </trkpt>
      <trkpt lat="44.26666" lon="0.70361">
        <ele>94.346557617188</ele>
        <time>2015-11-19T14:35:44Z</time>
      </trkpt>
      <trkpt lat="44.26667" lon="0.7034">
        <ele>98.19189453125</ele>
        <time>2015-11-19T14:36:04Z</time>
      </trkpt>
      <trkpt lat="44.2667" lon="0.70321">
        <ele>100.11450195312</ele>
        <time>2015-11-19T14:36:21Z</time>
      </trkpt>
      <trkpt lat="44.26669" lon="0.70302">
        <ele>100.11450195312</ele>
        <time>2015-11-19T14:36:39Z</time>
      </trkpt>
      <trkpt lat="44.26674" lon="0.70286">
        <ele>96.749877929688</ele>
        <time>2015-11-19T14:36:53Z</time>
      </trkpt>
      <trkpt lat="44.26676" lon="0.70268">
        <ele>92.423950195312</ele>
        <time>2015-11-19T14:37:09Z</time>
      </trkpt>
      <trkpt lat="44.2667" lon="0.70252">
        <ele>93.385131835938</ele>
        <time>2015-11-19T14:37:20Z</time>
      </trkpt>
      <trkpt lat="44.26657" lon="0.70246">
        <ele>92.904541015625</ele>
        <time>2015-11-19T14:37:36Z</time>
      </trkpt>
      <trkpt lat="44.26646" lon="0.7024">
        <ele>95.307739257812</ele>
        <time>2015-11-19T14:37:55Z</time>
      </trkpt>
      <trkpt lat="44.2664" lon="0.70235">
        <ele>95.307739257812</ele>
        <time>2015-11-19T14:38:10Z</time>
      </trkpt>
      <trkpt lat="44.26631" lon="0.70232">
        <ele>96.269287109375</ele>
        <time>2015-11-19T14:38:28Z</time>
      </trkpt>
      <trkpt lat="44.26622" lon="0.70229">
        <ele>96.749877929688</ele>
        <time>2015-11-19T14:38:49Z</time>
      </trkpt>
      <trkpt lat="44.26612" lon="0.70225">
        <ele>101.55639648438</ele>
        <time>2015-11-19T14:39:14Z</time>
      </trkpt>
      <trkpt lat="44.26605" lon="0.70219">
        <ele>105.88244628906</ele>
        <time>2015-11-19T14:39:34Z</time>
      </trkpt>
      <trkpt lat="44.26597" lon="0.70214">
        <ele>105.40173339844</ele>
        <time>2015-11-19T14:39:57Z</time>
      </trkpt>
      <trkpt lat="44.26588" lon="0.70202">
        <ele>105.88244628906</ele>
        <time>2015-11-19T14:40:17Z</time>
      </trkpt>
      <trkpt lat="44.26591" lon="0.70192">
        <ele>109.72766113281</ele>
        <time>2015-11-19T14:40:32Z</time>
      </trkpt>
      <trkpt lat="44.26598" lon="0.70178">
        <ele>111.65026855469</ele>
        <time>2015-11-19T14:40:48Z</time>
      </trkpt>
      <trkpt lat="44.266" lon="0.70176">
        <ele>111.16955566406</ele>
        <time>2015-11-19T14:40:50Z</time>
      </trkpt>
      <trkpt lat="44.26607" lon="0.70157">
        <ele>115.01489257812</ele>
        <time>2015-11-19T14:41:07Z</time>
      </trkpt>
      <trkpt lat="44.26608" lon="0.70155">
        <ele>115.01489257812</ele>
        <time>2015-11-19T14:41:08Z</time>
      </trkpt>
      <trkpt lat="44.2662" lon="0.70131">
        <ele>114.05358886719</ele>
        <time>2015-11-19T14:41:25Z</time>
      </trkpt>
      <trkpt lat="44.26624" lon="0.70114">
        <ele>118.37939453125</ele>
        <time>2015-11-19T14:41:42Z</time>
      </trkpt>
      <trkpt lat="44.26633" lon="0.70091">
        <ele>121.26354980469</ele>
        <time>2015-11-19T14:41:59Z</time>
      </trkpt>
      <trkpt lat="44.26635" lon="0.70074">
        <ele>118.37939453125</ele>
        <time>2015-11-19T14:42:12Z</time>
      </trkpt>
      <trkpt lat="44.2663" lon="0.70059">
        <ele>116.45678710938</ele>
        <time>2015-11-19T14:42:24Z</time>
      </trkpt>
      <trkpt lat="44.26616" lon="0.70037">
        <ele>117.41821289062</ele>
        <time>2015-11-19T14:42:43Z</time>
      </trkpt>
      <trkpt lat="44.2661" lon="0.70027">
        <ele>118.86010742188</ele>
        <time>2015-11-19T14:42:52Z</time>
      </trkpt>
      <trkpt lat="44.26596" lon="0.70012">
        <ele>117.41821289062</ele>
        <time>2015-11-19T14:43:13Z</time>
      </trkpt>
      <trkpt lat="44.26588" lon="0.70002">
        <ele>115.97619628906</ele>
        <time>2015-11-19T14:43:30Z</time>
      </trkpt>
      <trkpt lat="44.26586" lon="0.69997">
        <ele>115.97619628906</ele>
        <time>2015-11-19T14:43:34Z</time>
      </trkpt>
      <trkpt lat="44.26583" lon="0.69982">
        <ele>115.97619628906</ele>
        <time>2015-11-19T14:43:51Z</time>
      </trkpt>
      <trkpt lat="44.26579" lon="0.6996">
        <ele>116.45678710938</ele>
        <time>2015-11-19T14:44:10Z</time>
      </trkpt>
      <trkpt lat="44.26578" lon="0.69948">
        <ele>117.41821289062</ele>
        <time>2015-11-19T14:44:26Z</time>
      </trkpt>
      <trkpt lat="44.26575" lon="0.69936">
        <ele>117.41821289062</ele>
        <time>2015-11-19T14:44:44Z</time>
      </trkpt>
      <trkpt lat="44.26573" lon="0.69916">
        <ele>118.37939453125</ele>
        <time>2015-11-19T14:45:18Z</time>
      </trkpt>
      <trkpt lat="44.2657" lon="0.6989">
        <ele>121.26354980469</ele>
        <time>2015-11-19T14:45:50Z</time>
      </trkpt>
      <trkpt lat="44.26576" lon="0.69874">
        <ele>125.58935546875</ele>
        <time>2015-11-19T14:46:16Z</time>
      </trkpt>
      <trkpt lat="44.2659" lon="0.69859">
        <ele>128.9541015625</ele>
        <time>2015-11-19T14:46:36Z</time>
      </trkpt>
      <trkpt lat="44.26595" lon="0.69847">
        <ele>126.06994628906</ele>
        <time>2015-11-19T14:46:52Z</time>
      </trkpt>
      <trkpt lat="44.26605" lon="0.69832">
        <ele>125.58935546875</ele>
        <time>2015-11-19T14:47:16Z</time>
      </trkpt>
      <trkpt lat="44.26596" lon="0.69827">
        <ele>128.9541015625</ele>
        <time>2015-11-19T14:47:33Z</time>
      </trkpt>
      <trkpt lat="44.26583" lon="0.69809">
        <ele>134.2412109375</ele>
        <time>2015-11-19T14:48:01Z</time>
      </trkpt>
      <trkpt lat="44.26579" lon="0.69805">
        <ele>135.20251464844</ele>
        <time>2015-11-19T14:48:08Z</time>
      </trkpt>
      <trkpt lat="44.26571" lon="0.69797">
        <ele>136.64465332031</ele>
        <time>2015-11-19T14:48:22Z</time>
      </trkpt>
      <trkpt lat="44.26563" lon="0.6979">
        <ele>138.08654785156</ele>
        <time>2015-11-19T14:48:42Z</time>
      </trkpt>
      <trkpt lat="44.26551" lon="0.69779">
        <ele>139.52844238281</ele>
        <time>2015-11-19T14:49:01Z</time>
      </trkpt>
      <trkpt lat="44.26542" lon="0.69765">
        <ele>138.56726074219</ele>
        <time>2015-11-19T14:49:20Z</time>
      </trkpt>
      <trkpt lat="44.26533" lon="0.69741">
        <ele>140.48986816406</ele>
        <time>2015-11-19T14:49:41Z</time>
      </trkpt>
      <trkpt lat="44.26528" lon="0.69721">
        <ele>142.41247558594</ele>
        <time>2015-11-19T14:49:57Z</time>
      </trkpt>
      <trkpt lat="44.26523" lon="0.69699">
        <ele>144.33520507812</ele>
        <time>2015-11-19T14:50:09Z</time>
      </trkpt>
      <trkpt lat="44.26517" lon="0.69681">
        <ele>146.73840332031</ele>
        <time>2015-11-19T14:50:24Z</time>
      </trkpt>
      <trkpt lat="44.26511" lon="0.69662">
        <ele>148.66101074219</ele>
        <time>2015-11-19T14:50:41Z</time>
      </trkpt>
      <trkpt lat="44.26507" lon="0.69646">
        <ele>151.544921875</ele>
        <time>2015-11-19T14:50:59Z</time>
      </trkpt>
      <trkpt lat="44.26507" lon="0.69634">
        <ele>152.02575683594</ele>
        <time>2015-11-19T14:51:14Z</time>
      </trkpt>
      <trkpt lat="44.26504" lon="0.69614">
        <ele>153.46765136719</ele>
        <time>2015-11-19T14:51:36Z</time>
      </trkpt>
      <trkpt lat="44.26503" lon="0.69601">
        <ele>156.3515625</ele>
        <time>2015-11-19T14:51:52Z</time>
      </trkpt>
      <trkpt lat="44.26497" lon="0.69583">
        <ele>157.31286621094</ele>
        <time>2015-11-19T14:52:09Z</time>
      </trkpt>
      <trkpt lat="44.2649" lon="0.69563">
        <ele>156.83215332031</ele>
        <time>2015-11-19T14:52:26Z</time>
      </trkpt>
      <trkpt lat="44.26482" lon="0.69537">
        <ele>160.19689941406</ele>
        <time>2015-11-19T14:52:49Z</time>
      </trkpt>
      <trkpt lat="44.26476" lon="0.69523">
        <ele>160.19689941406</ele>
        <time>2015-11-19T14:53:03Z</time>
      </trkpt>
      <trkpt lat="44.26469" lon="0.6951">
        <ele>161.63891601562</ele>
        <time>2015-11-19T14:53:21Z</time>
      </trkpt>
      <trkpt lat="44.26465" lon="0.69492">
        <ele>165.00341796875</ele>
        <time>2015-11-19T14:53:39Z</time>
      </trkpt>
      <trkpt lat="44.26462" lon="0.69481">
        <ele>165.48413085938</ele>
        <time>2015-11-19T14:53:51Z</time>
      </trkpt>
      <trkpt lat="44.26461" lon="0.69484">
        <ele>165.48413085938</ele>
        <time>2015-11-19T14:54:11Z</time>
      </trkpt>
      <trkpt lat="44.2646" lon="0.69478">
        <ele>165.48413085938</ele>
        <time>2015-11-19T14:55:06Z</time>
      </trkpt>
      <trkpt lat="44.26458" lon="0.6947">
        <ele>165.96472167969</ele>
        <time>2015-11-19T14:55:26Z</time>
      </trkpt>
      <trkpt lat="44.2646" lon="0.69458">
        <ele>165.96472167969</ele>
        <time>2015-11-19T14:55:41Z</time>
      </trkpt>
      <trkpt lat="44.26465" lon="0.6945">
        <ele>169.81005859375</ele>
        <time>2015-11-19T14:55:52Z</time>
      </trkpt>
      <trkpt lat="44.26469" lon="0.6943">
        <ele>170.29064941406</ele>
        <time>2015-11-19T14:56:08Z</time>
      </trkpt>
      <trkpt lat="44.2647" lon="0.69425">
        <ele>170.29064941406</ele>
        <time>2015-11-19T14:56:12Z</time>
      </trkpt>
      <trkpt lat="44.26474" lon="0.69403">
        <ele>167.40673828125</ele>
        <time>2015-11-19T14:56:28Z</time>
      </trkpt>
      <trkpt lat="44.26475" lon="0.69402">
        <ele>167.88732910156</ele>
        <time>2015-11-19T14:56:29Z</time>
      </trkpt>
      <trkpt lat="44.26482" lon="0.6938">
        <ele>168.84875488281</ele>
        <time>2015-11-19T14:56:45Z</time>
      </trkpt>
      <trkpt lat="44.26482" lon="0.69377">
        <ele>168.84875488281</ele>
        <time>2015-11-19T14:56:47Z</time>
      </trkpt>
      <trkpt lat="44.26483" lon="0.69374">
        <ele>168.84875488281</ele>
        <time>2015-11-19T14:56:50Z</time>
      </trkpt>
      <trkpt lat="44.26488" lon="0.69351">
        <ele>166.4453125</ele>
        <time>2015-11-19T14:57:07Z</time>
      </trkpt>
      <trkpt lat="44.26493" lon="0.69345">
        <ele>167.40673828125</ele>
        <time>2015-11-19T14:57:13Z</time>
      </trkpt>
      <trkpt lat="44.26495" lon="0.6934">
        <ele>167.40673828125</ele>
        <time>2015-11-19T14:57:17Z</time>
      </trkpt>
      <trkpt lat="44.26505" lon="0.69328">
        <ele>166.4453125</ele>
        <time>2015-11-19T14:57:30Z</time>
      </trkpt>
      <trkpt lat="44.26516" lon="0.69318">
        <ele>168.36804199219</ele>
        <time>2015-11-19T14:57:43Z</time>
      </trkpt>
      <trkpt lat="44.2652" lon="0.69309">
        <ele>168.84875488281</ele>
        <time>2015-11-19T14:57:55Z</time>
      </trkpt>
      <trkpt lat="44.26511" lon="0.69295">
        <ele>165.00341796875</ele>
        <time>2015-11-19T14:58:12Z</time>
      </trkpt>
      <trkpt lat="44.26501" lon="0.69283">
        <ele>160.67749023438</ele>
        <time>2015-11-19T14:58:34Z</time>
      </trkpt>
      <trkpt lat="44.26495" lon="0.69276">
        <ele>158.27416992188</ele>
        <time>2015-11-19T14:58:49Z</time>
      </trkpt>
      <trkpt lat="44.26494" lon="0.69272">
        <ele>157.79357910156</ele>
        <time>2015-11-19T14:58:52Z</time>
      </trkpt>
      <trkpt lat="44.26489" lon="0.6926">
        <ele>153.94836425781</ele>
        <time>2015-11-19T14:59:09Z</time>
      </trkpt>
      <trkpt lat="44.26485" lon="0.69247">
        <ele>149.62231445312</ele>
        <time>2015-11-19T14:59:30Z</time>
      </trkpt>
      <trkpt lat="44.26482" lon="0.69226">
        <ele>147.69970703125</ele>
        <time>2015-11-19T14:59:48Z</time>
      </trkpt>
      <trkpt lat="44.26479" lon="0.69202">
        <ele>143.85437011719</ele>
        <time>2015-11-19T15:00:13Z</time>
      </trkpt>
      <trkpt lat="44.26477" lon="0.69181">
        <ele>141.93176269531</ele>
        <time>2015-11-19T15:00:32Z</time>
      </trkpt>
      <trkpt lat="44.26476" lon="0.69164">
        <ele>139.0478515625</ele>
        <time>2015-11-19T15:00:51Z</time>
      </trkpt>
      <trkpt lat="44.26475" lon="0.69131">
        <ele>137.12524414062</ele>
        <time>2015-11-19T15:01:18Z</time>
      </trkpt>
      <trkpt lat="44.26478" lon="0.69114">
        <ele>137.60583496094</ele>
        <time>2015-11-19T15:01:33Z</time>
      </trkpt>
      <trkpt lat="44.26486" lon="0.69098">
        <ele>140.97045898438</ele>
        <time>2015-11-19T15:01:53Z</time>
      </trkpt>
      <trkpt lat="44.26493" lon="0.69091">
        <ele>141.93176269531</ele>
        <time>2015-11-19T15:02:02Z</time>
      </trkpt>
      <trkpt lat="44.265" lon="0.69084">
        <ele>141.93176269531</ele>
        <time>2015-11-19T15:02:09Z</time>
      </trkpt>
      <trkpt lat="44.26506" lon="0.69081">
        <ele>142.89306640625</ele>
        <time>2015-11-19T15:02:14Z</time>
      </trkpt>
      <trkpt lat="44.26511" lon="0.69077">
        <ele>145.29638671875</ele>
        <time>2015-11-19T15:02:19Z</time>
      </trkpt>
      <trkpt lat="44.26528" lon="0.69069">
        <ele>147.21899414062</ele>
        <time>2015-11-19T15:02:38Z</time>
      </trkpt>
      <trkpt lat="44.2654" lon="0.69057">
        <ele>147.21899414062</ele>
        <time>2015-11-19T15:02:55Z</time>
      </trkpt>
      <trkpt lat="44.26553" lon="0.69046">
        <ele>145.77709960938</ele>
        <time>2015-11-19T15:03:10Z</time>
      </trkpt>
      <trkpt lat="44.26559" lon="0.69038">
        <ele>144.33520507812</ele>
        <time>2015-11-19T15:03:20Z</time>
      </trkpt>
      <trkpt lat="44.26572" lon="0.69024">
        <ele>142.41247558594</ele>
        <time>2015-11-19T15:03:36Z</time>
      </trkpt>
      <trkpt lat="44.2658" lon="0.69016">
        <ele>141.45104980469</ele>
        <time>2015-11-19T15:03:47Z</time>
      </trkpt>
      <trkpt lat="44.26586" lon="0.69009">
        <ele>143.37365722656</ele>
        <time>2015-11-19T15:04:00Z</time>
      </trkpt>
      <trkpt lat="44.26588" lon="0.69007">
        <ele>143.85437011719</ele>
        <time>2015-11-19T15:04:02Z</time>
      </trkpt>
      <trkpt lat="44.26599" lon="0.68993">
        <ele>142.41247558594</ele>
        <time>2015-11-19T15:04:17Z</time>
      </trkpt>
      <trkpt lat="44.26608" lon="0.68974">
        <ele>142.41247558594</ele>
        <time>2015-11-19T15:04:33Z</time>
      </trkpt>
      <trkpt lat="44.26614" lon="0.6896">
        <ele>141.93176269531</ele>
        <time>2015-11-19T15:04:47Z</time>
      </trkpt>
      <trkpt lat="44.2662" lon="0.68946">
        <ele>143.85437011719</ele>
        <time>2015-11-19T15:05:01Z</time>
      </trkpt>
      <trkpt lat="44.26621" lon="0.6894">
        <ele>144.81579589844</ele>
        <time>2015-11-19T15:05:06Z</time>
      </trkpt>
      <trkpt lat="44.2663" lon="0.68919">
        <ele>148.66101074219</ele>
        <time>2015-11-19T15:05:21Z</time>
      </trkpt>
      <trkpt lat="44.26636" lon="0.68906">
        <ele>150.10302734375</ele>
        <time>2015-11-19T15:05:37Z</time>
      </trkpt>
      <trkpt lat="44.26641" lon="0.68894">
        <ele>152.50634765625</ele>
        <time>2015-11-19T15:05:52Z</time>
      </trkpt>
      <trkpt lat="44.26642" lon="0.68872">
        <ele>155.87097167969</ele>
        <time>2015-11-19T15:06:09Z</time>
      </trkpt>
      <trkpt lat="44.26643" lon="0.68868">
        <ele>153.94836425781</ele>
        <time>2015-11-19T15:06:11Z</time>
      </trkpt>
      <trkpt lat="44.2664" lon="0.68846">
        <ele>155.87097167969</ele>
        <time>2015-11-19T15:06:28Z</time>
      </trkpt>
      <trkpt lat="44.2664" lon="0.68825">
        <ele>157.31286621094</ele>
        <time>2015-11-19T15:06:45Z</time>
      </trkpt>
      <trkpt lat="44.26631" lon="0.68802">
        <ele>158.75476074219</ele>
        <time>2015-11-19T15:07:04Z</time>
      </trkpt>
      <trkpt lat="44.26629" lon="0.68785">
        <ele>157.31286621094</ele>
        <time>2015-11-19T15:07:20Z</time>
      </trkpt>
      <trkpt lat="44.26627" lon="0.68772">
        <ele>156.3515625</ele>
        <time>2015-11-19T15:07:37Z</time>
      </trkpt>
      <trkpt lat="44.26629" lon="0.6875">
        <ele>151.544921875</ele>
        <time>2015-11-19T15:07:54Z</time>
      </trkpt>
      <trkpt lat="44.26629" lon="0.68736">
        <ele>150.10302734375</ele>
        <time>2015-11-19T15:08:09Z</time>
      </trkpt>
      <trkpt lat="44.26633" lon="0.68728">
        <ele>149.1416015625</ele>
        <time>2015-11-19T15:08:14Z</time>
      </trkpt>
      <trkpt lat="44.26639" lon="0.68702">
        <ele>147.69970703125</ele>
        <time>2015-11-19T15:08:30Z</time>
      </trkpt>
      <trkpt lat="44.26643" lon="0.68687">
        <ele>143.85437011719</ele>
        <time>2015-11-19T15:08:43Z</time>
      </trkpt>
      <trkpt lat="44.26647" lon="0.68673">
        <ele>140.97045898438</ele>
        <time>2015-11-19T15:08:56Z</time>
      </trkpt>
      <trkpt lat="44.26649" lon="0.68659">
        <ele>139.0478515625</ele>
        <time>2015-11-19T15:09:09Z</time>
      </trkpt>
      <trkpt lat="44.26647" lon="0.68639">
        <ele>137.60583496094</ele>
        <time>2015-11-19T15:09:25Z</time>
      </trkpt>
      <trkpt lat="44.2664" lon="0.68622">
        <ele>135.20251464844</ele>
        <time>2015-11-19T15:09:41Z</time>
      </trkpt>
      <trkpt lat="44.26637" lon="0.68588">
        <ele>137.60583496094</ele>
        <time>2015-11-19T15:09:58Z</time>
      </trkpt>
      <trkpt lat="44.26633" lon="0.68582">
        <ele>140.48986816406</ele>
        <time>2015-11-19T15:10:10Z</time>
      </trkpt>
      <trkpt lat="44.26617" lon="0.68563">
        <ele>144.81579589844</ele>
        <time>2015-11-19T15:10:25Z</time>
      </trkpt>
      <trkpt lat="44.26603" lon="0.68559">
        <ele>144.81579589844</ele>
        <time>2015-11-19T15:10:38Z</time>
      </trkpt>
      <trkpt lat="44.26589" lon="0.68551">
        <ele>145.29638671875</ele>
        <time>2015-11-19T15:10:57Z</time>
      </trkpt>
      <trkpt lat="44.26582" lon="0.68545">
        <ele>145.77709960938</ele>
        <time>2015-11-19T15:11:06Z</time>
      </trkpt>
      <trkpt lat="44.26573" lon="0.68548">
        <ele>145.77709960938</ele>
        <time>2015-11-19T15:11:23Z</time>
      </trkpt>
      <trkpt lat="44.26555" lon="0.68565">
        <ele>147.69970703125</ele>
        <time>2015-11-19T15:11:47Z</time>
      </trkpt>
      <trkpt lat="44.26551" lon="0.68569">
        <ele>149.1416015625</ele>
        <time>2015-11-19T15:11:52Z</time>
      </trkpt>
      <trkpt lat="44.26526" lon="0.68593">
        <ele>151.06420898438</ele>
        <time>2015-11-19T15:12:25Z</time>
      </trkpt>
      <trkpt lat="44.26513" lon="0.68604">
        <ele>148.66101074219</ele>
        <time>2015-11-19T15:12:43Z</time>
      </trkpt>
      <trkpt lat="44.26496" lon="0.68612">
        <ele>149.62231445312</ele>
        <time>2015-11-19T15:13:02Z</time>
      </trkpt>
      <trkpt lat="44.26482" lon="0.68621">
        <ele>149.62231445312</ele>
        <time>2015-11-19T15:13:20Z</time>
      </trkpt>
      <trkpt lat="44.26479" lon="0.68614">
        <ele>149.62231445312</ele>
        <time>2015-11-19T15:13:34Z</time>
      </trkpt>
      <trkpt lat="44.26477" lon="0.68604">
        <ele>148.66101074219</ele>
        <time>2015-11-19T15:13:49Z</time>
      </trkpt>
      <trkpt lat="44.26475" lon="0.68598">
        <ele>149.1416015625</ele>
        <time>2015-11-19T15:14:03Z</time>
      </trkpt>
      <trkpt lat="44.2647" lon="0.68573">
        <ele>151.544921875</ele>
        <time>2015-11-19T15:14:23Z</time>
      </trkpt>
      <trkpt lat="44.26463" lon="0.68555">
        <ele>153.94836425781</ele>
        <time>2015-11-19T15:14:43Z</time>
      </trkpt>
      <trkpt lat="44.26458" lon="0.68541">
        <ele>154.90954589844</ele>
        <time>2015-11-19T15:15:00Z</time>
      </trkpt>
      <trkpt lat="44.26451" lon="0.68516">
        <ele>157.31286621094</ele>
        <time>2015-11-19T15:15:30Z</time>
      </trkpt>
      <trkpt lat="44.26445" lon="0.68495">
        <ele>160.67749023438</ele>
        <time>2015-11-19T15:15:57Z</time>
      </trkpt>
      <trkpt lat="44.26441" lon="0.68483">
        <ele>161.63891601562</ele>
        <time>2015-11-19T15:16:15Z</time>
      </trkpt>
      <trkpt lat="44.26436" lon="0.68472">
        <ele>164.52270507812</ele>
        <time>2015-11-19T15:16:32Z</time>
      </trkpt>
      <trkpt lat="44.26427" lon="0.68458">
        <ele>165.96472167969</ele>
        <time>2015-11-19T15:16:54Z</time>
      </trkpt>
      <trkpt lat="44.2642" lon="0.68447">
        <ele>166.92602539062</ele>
        <time>2015-11-19T15:17:14Z</time>
      </trkpt>
      <trkpt lat="44.26418" lon="0.68445">
        <ele>167.40673828125</ele>
        <time>2015-11-19T15:17:17Z</time>
      </trkpt>
      <trkpt lat="44.26409" lon="0.68438">
        <ele>169.32946777344</ele>
        <time>2015-11-19T15:17:34Z</time>
      </trkpt>
      <trkpt lat="44.26397" lon="0.68425">
        <ele>171.73266601562</ele>
        <time>2015-11-19T15:18:01Z</time>
      </trkpt>
      <trkpt lat="44.26394" lon="0.68415">
        <ele>176.53930664062</ele>
        <time>2015-11-19T15:18:23Z</time>
      </trkpt>
      <trkpt lat="44.26392" lon="0.68399">
        <ele>177.98120117188</ele>
        <time>2015-11-19T15:18:44Z</time>
      </trkpt>
      <trkpt lat="44.26388" lon="0.68378">
        <ele>177.02001953125</ele>
        <time>2015-11-19T15:19:01Z</time>
      </trkpt>
      <trkpt lat="44.2638" lon="0.68353">
        <ele>178.4619140625</ele>
        <time>2015-11-19T15:19:23Z</time>
      </trkpt>
      <trkpt lat="44.26369" lon="0.68327">
        <ele>179.90380859375</ele>
        <time>2015-11-19T15:19:50Z</time>
      </trkpt>
      <trkpt lat="44.2636" lon="0.68318">
        <ele>178.94262695312</ele>
        <time>2015-11-19T15:20:03Z</time>
      </trkpt>
      <trkpt lat="44.26358" lon="0.6832">
        <ele>179.90380859375</ele>
        <time>2015-11-19T15:20:06Z</time>
      </trkpt>
      <trkpt lat="44.26343" lon="0.6834">
        <ele>185.67175292969</ele>
        <time>2015-11-19T15:20:24Z</time>
      </trkpt>
      <trkpt lat="44.2632" lon="0.68362">
        <ele>186.63317871094</ele>
        <time>2015-11-19T15:20:46Z</time>
      </trkpt>
      <trkpt lat="44.26299" lon="0.68383">
        <ele>188.07507324219</ele>
        <time>2015-11-19T15:21:09Z</time>
      </trkpt>
      <trkpt lat="44.26277" lon="0.68408">
        <ele>189.03637695312</ele>
        <time>2015-11-19T15:21:33Z</time>
      </trkpt>
      <trkpt lat="44.26262" lon="0.68426">
        <ele>185.67175292969</ele>
        <time>2015-11-19T15:21:50Z</time>
      </trkpt>
      <trkpt lat="44.26253" lon="0.68446">
        <ele>185.67175292969</ele>
        <time>2015-11-19T15:22:03Z</time>
      </trkpt>
      <trkpt lat="44.26246" lon="0.68459">
        <ele>186.15246582031</ele>
        <time>2015-11-19T15:22:13Z</time>
      </trkpt>
      <trkpt lat="44.26238" lon="0.68467">
        <ele>188.07507324219</ele>
        <time>2015-11-19T15:22:21Z</time>
      </trkpt>
      <trkpt lat="44.26223" lon="0.68482">
        <ele>188.55578613281</ele>
        <time>2015-11-19T15:22:39Z</time>
      </trkpt>
      <trkpt lat="44.26217" lon="0.68484">
        <ele>186.63317871094</ele>
        <time>2015-11-19T15:22:45Z</time>
      </trkpt>
      <trkpt lat="44.26206" lon="0.68484">
        <ele>186.63317871094</ele>
        <time>2015-11-19T15:22:54Z</time>
      </trkpt>
      <trkpt lat="44.26187" lon="0.68492">
        <ele>189.99768066406</ele>
        <time>2015-11-19T15:23:10Z</time>
      </trkpt>
      <trkpt lat="44.26176" lon="0.68503">
        <ele>191.92028808594</ele>
        <time>2015-11-19T15:23:23Z</time>
      </trkpt>
      <trkpt lat="44.26168" lon="0.68518">
        <ele>193.84301757812</ele>
        <time>2015-11-19T15:23:33Z</time>
      </trkpt>
      <trkpt lat="44.26152" lon="0.68524">
        <ele>193.3623046875</ele>
        <time>2015-11-19T15:23:45Z</time>
      </trkpt>
      <trkpt lat="44.26135" lon="0.68532">
        <ele>191.92028808594</ele>
        <time>2015-11-19T15:23:58Z</time>
      </trkpt>
      <trkpt lat="44.26121" lon="0.68535">
        <ele>187.59436035156</ele>
        <time>2015-11-19T15:24:14Z</time>
      </trkpt>
      <trkpt lat="44.26101" lon="0.6854">
        <ele>184.71057128906</ele>
        <time>2015-11-19T15:24:34Z</time>
      </trkpt>
      <trkpt lat="44.2608" lon="0.68553">
        <ele>183.7490234375</ele>
        <time>2015-11-19T15:24:52Z</time>
      </trkpt>
      <trkpt lat="44.26064" lon="0.68561">
        <ele>183.7490234375</ele>
        <time>2015-11-19T15:25:07Z</time>
      </trkpt>
      <trkpt lat="44.26062" lon="0.68561">
        <ele>183.7490234375</ele>
        <time>2015-11-19T15:25:09Z</time>
      </trkpt>
      <trkpt lat="44.26056" lon="0.68567">
        <ele>182.78784179688</ele>
        <time>2015-11-19T15:25:16Z</time>
      </trkpt>
      <trkpt lat="44.26035" lon="0.68573">
        <ele>182.78784179688</ele>
        <time>2015-11-19T15:25:36Z</time>
      </trkpt>
      <trkpt lat="44.26029" lon="0.68574">
        <ele>180.38452148438</ele>
        <time>2015-11-19T15:25:43Z</time>
      </trkpt>
      <trkpt lat="44.26025" lon="0.68576">
        <ele>180.38452148438</ele>
        <time>2015-11-19T15:25:46Z</time>
      </trkpt>
      <trkpt lat="44.26007" lon="0.68581">
        <ele>178.4619140625</ele>
        <time>2015-11-19T15:26:03Z</time>
      </trkpt>
      <trkpt lat="44.25998" lon="0.68584">
        <ele>178.4619140625</ele>
        <time>2015-11-19T15:26:10Z</time>
      </trkpt>
      <trkpt lat="44.25978" lon="0.68594">
        <ele>180.865234375</ele>
        <time>2015-11-19T15:26:26Z</time>
      </trkpt>
      <trkpt lat="44.25965" lon="0.68603">
        <ele>180.865234375</ele>
        <time>2015-11-19T15:26:40Z</time>
      </trkpt>
      <trkpt lat="44.25941" lon="0.68619">
        <ele>182.78784179688</ele>
        <time>2015-11-19T15:27:06Z</time>
      </trkpt>
      <trkpt lat="44.25928" lon="0.68632">
        <ele>183.7490234375</ele>
        <time>2015-11-19T15:27:21Z</time>
      </trkpt>
      <trkpt lat="44.25916" lon="0.68646">
        <ele>189.51696777344</ele>
        <time>2015-11-19T15:27:34Z</time>
      </trkpt>
      <trkpt lat="44.25908" lon="0.68654">
        <ele>193.84301757812</ele>
        <time>2015-11-19T15:27:42Z</time>
      </trkpt>
      <trkpt lat="44.25904" lon="0.68658">
        <ele>196.72692871094</ele>
        <time>2015-11-19T15:27:45Z</time>
      </trkpt>
      <trkpt lat="44.25892" lon="0.68667">
        <ele>199.61083984375</ele>
        <time>2015-11-19T15:27:55Z</time>
      </trkpt>
      <trkpt lat="44.2589" lon="0.68668">
        <ele>201.53356933594</ele>
        <time>2015-11-19T15:27:57Z</time>
      </trkpt>
      <trkpt lat="44.25883" lon="0.68679">
        <ele>202.49487304688</ele>
        <time>2015-11-19T15:28:06Z</time>
      </trkpt>
      <trkpt lat="44.25874" lon="0.68684">
        <ele>195.28491210938</ele>
        <time>2015-11-19T15:28:16Z</time>
      </trkpt>
      <trkpt lat="44.25858" lon="0.68668">
        <ele>186.15246582031</ele>
        <time>2015-11-19T15:28:36Z</time>
      </trkpt>
      <trkpt lat="44.25848" lon="0.68651">
        <ele>179.90380859375</ele>
        <time>2015-11-19T15:28:52Z</time>
      </trkpt>
      <trkpt lat="44.25834" lon="0.68633">
        <ele>175.57788085938</ele>
        <time>2015-11-19T15:29:10Z</time>
      </trkpt>
      <trkpt lat="44.25812" lon="0.68614">
        <ele>172.21325683594</ele>
        <time>2015-11-19T15:29:36Z</time>
      </trkpt>
      <trkpt lat="44.25791" lon="0.68599">
        <ele>170.29064941406</ele>
        <time>2015-11-19T15:29:59Z</time>
      </trkpt>
      <trkpt lat="44.2577" lon="0.68576">
        <ele>166.4453125</ele>
        <time>2015-11-19T15:30:25Z</time>
      </trkpt>
      <trkpt lat="44.25757" lon="0.6856">
        <ele>162.60009765625</ele>
        <time>2015-11-19T15:30:43Z</time>
      </trkpt>
      <trkpt lat="44.25737" lon="0.68533">
        <ele>160.19689941406</ele>
        <time>2015-11-19T15:31:08Z</time>
      </trkpt>
      <trkpt lat="44.25714" lon="0.68506">
        <ele>156.83215332031</ele>
        <time>2015-11-19T15:31:35Z</time>
      </trkpt>
      <trkpt lat="44.25697" lon="0.68484">
        <ele>153.94836425781</ele>
        <time>2015-11-19T15:31:56Z</time>
      </trkpt>
      <trkpt lat="44.25677" lon="0.68458">
        <ele>151.06420898438</ele>
        <time>2015-11-19T15:32:21Z</time>
      </trkpt>
      <trkpt lat="44.25662" lon="0.68447">
        <ele>148.66101074219</ele>
        <time>2015-11-19T15:32:36Z</time>
      </trkpt>
      <trkpt lat="44.25636" lon="0.68449">
        <ele>150.58361816406</ele>
        <time>2015-11-19T15:33:00Z</time>
      </trkpt>
      <trkpt lat="44.2561" lon="0.68454">
        <ele>152.02575683594</ele>
        <time>2015-11-19T15:33:25Z</time>
      </trkpt>
      <trkpt lat="44.25602" lon="0.68455">
        <ele>151.06420898438</ele>
        <time>2015-11-19T15:33:33Z</time>
      </trkpt>
      <trkpt lat="44.25592" lon="0.68457">
        <ele>149.1416015625</ele>
        <time>2015-11-19T15:33:44Z</time>
      </trkpt>
      <trkpt lat="44.2559" lon="0.68459">
        <ele>149.1416015625</ele>
        <time>2015-11-19T15:33:48Z</time>
      </trkpt>
      <trkpt lat="44.25575" lon="0.68476">
        <ele>150.10302734375</ele>
        <time>2015-11-19T15:34:05Z</time>
      </trkpt>
      <trkpt lat="44.25562" lon="0.68491">
        <ele>153.46765136719</ele>
        <time>2015-11-19T15:34:21Z</time>
      </trkpt>
      <trkpt lat="44.2556" lon="0.68494">
        <ele>153.46765136719</ele>
        <time>2015-11-19T15:34:25Z</time>
      </trkpt>
      <trkpt lat="44.25546" lon="0.68507">
        <ele>155.39025878906</ele>
        <time>2015-11-19T15:34:39Z</time>
      </trkpt>
      <trkpt lat="44.25531" lon="0.68513">
        <ele>156.83215332031</ele>
        <time>2015-11-19T15:34:52Z</time>
      </trkpt>
      <trkpt lat="44.25517" lon="0.68516">
        <ele>152.50634765625</ele>
        <time>2015-11-19T15:35:09Z</time>
      </trkpt>
      <trkpt lat="44.25505" lon="0.6852">
        <ele>149.1416015625</ele>
        <time>2015-11-19T15:35:27Z</time>
      </trkpt>
      <trkpt lat="44.25493" lon="0.68535">
        <ele>144.81579589844</ele>
        <time>2015-11-19T15:35:46Z</time>
      </trkpt>
      <trkpt lat="44.25479" lon="0.6855">
        <ele>141.45104980469</ele>
        <time>2015-11-19T15:36:08Z</time>
      </trkpt>
      <trkpt lat="44.25473" lon="0.68554">
        <ele>141.45104980469</ele>
        <time>2015-11-19T15:36:17Z</time>
      </trkpt>
      <trkpt lat="44.2547" lon="0.68556">
        <ele>140.97045898438</ele>
        <time>2015-11-19T15:36:21Z</time>
      </trkpt>
      <trkpt lat="44.25459" lon="0.68574">
        <ele>133.76049804688</ele>
        <time>2015-11-19T15:36:41Z</time>
      </trkpt>
      <trkpt lat="44.25449" lon="0.68586">
        <ele>130.39599609375</ele>
        <time>2015-11-19T15:36:58Z</time>
      </trkpt>
      <trkpt lat="44.25436" lon="0.6859">
        <ele>132.31860351562</ele>
        <time>2015-11-19T15:37:13Z</time>
      </trkpt>
      <trkpt lat="44.25433" lon="0.68594">
        <ele>131.837890625</ele>
        <time>2015-11-19T15:37:16Z</time>
      </trkpt>
      <trkpt lat="44.25424" lon="0.68603">
        <ele>130.39599609375</ele>
        <time>2015-11-19T15:37:31Z</time>
      </trkpt>
      <trkpt lat="44.25409" lon="0.6862">
        <ele>126.55065917969</ele>
        <time>2015-11-19T15:37:51Z</time>
      </trkpt>
      <trkpt lat="44.25401" lon="0.68626">
        <ele>125.10876464844</ele>
        <time>2015-11-19T15:38:00Z</time>
      </trkpt>
      <trkpt lat="44.25394" lon="0.6864">
        <ele>121.744140625</ele>
        <time>2015-11-19T15:38:14Z</time>
      </trkpt>
      <trkpt lat="44.25383" lon="0.68655">
        <ele>119.3408203125</ele>
        <time>2015-11-19T15:38:29Z</time>
      </trkpt>
      <trkpt lat="44.25373" lon="0.68663">
        <ele>120.30212402344</ele>
        <time>2015-11-19T15:38:39Z</time>
      </trkpt>
      <trkpt lat="44.25364" lon="0.68671">
        <ele>119.3408203125</ele>
        <time>2015-11-19T15:38:48Z</time>
      </trkpt>
      <trkpt lat="44.25351" lon="0.6868">
        <ele>118.37939453125</ele>
        <time>2015-11-19T15:39:02Z</time>
      </trkpt>
      <trkpt lat="44.25336" lon="0.68689">
        <ele>116.45678710938</ele>
        <time>2015-11-19T15:39:18Z</time>
      </trkpt>
      <trkpt lat="44.25328" lon="0.68702">
        <ele>114.05358886719</ele>
        <time>2015-11-19T15:39:36Z</time>
      </trkpt>
      <trkpt lat="44.25333" lon="0.6873">
        <ele>108.28564453125</ele>
        <time>2015-11-19T15:40:01Z</time>
      </trkpt>
      <trkpt lat="44.25336" lon="0.68735">
        <ele>106.84362792969</ele>
        <time>2015-11-19T15:40:05Z</time>
      </trkpt>
      <trkpt lat="44.25346" lon="0.68755">
        <ele>96.269287109375</ele>
        <time>2015-11-19T15:40:25Z</time>
      </trkpt>
      <trkpt lat="44.25356" lon="0.68777">
        <ele>95.307739257812</ele>
        <time>2015-11-19T15:40:42Z</time>
      </trkpt>
      <trkpt lat="44.25363" lon="0.68794">
        <ele>94.346557617188</ele>
        <time>2015-11-19T15:40:55Z</time>
      </trkpt>
      <trkpt lat="44.25373" lon="0.68814">
        <ele>94.346557617188</ele>
        <time>2015-11-19T15:41:13Z</time>
      </trkpt>
      <trkpt lat="44.25375" lon="0.68825">
        <ele>96.749877929688</ele>
        <time>2015-11-19T15:41:21Z</time>
      </trkpt>
      <trkpt lat="44.25378" lon="0.68844">
        <ele>99.6337890625</ele>
        <time>2015-11-19T15:41:37Z</time>
      </trkpt>
      <trkpt lat="44.25386" lon="0.68876">
        <ele>98.19189453125</ele>
        <time>2015-11-19T15:42:06Z</time>
      </trkpt>
      <trkpt lat="44.2539" lon="0.68901">
        <ele>97.711181640625</ele>
        <time>2015-11-19T15:42:26Z</time>
      </trkpt>
      <trkpt lat="44.25396" lon="0.6893">
        <ele>98.672485351562</ele>
        <time>2015-11-19T15:42:49Z</time>
      </trkpt>
      <trkpt lat="44.25396" lon="0.68936">
        <ele>98.19189453125</ele>
        <time>2015-11-19T15:42:56Z</time>
      </trkpt>
      <trkpt lat="44.25396" lon="0.68941">
        <ele>97.23046875</ele>
        <time>2015-11-19T15:43:00Z</time>
      </trkpt>
      <trkpt lat="44.25403" lon="0.68952">
        <ele>98.672485351562</ele>
        <time>2015-11-19T15:43:15Z</time>
      </trkpt>
      <trkpt lat="44.25419" lon="0.68973">
        <ele>101.55639648438</ele>
        <time>2015-11-19T15:43:36Z</time>
      </trkpt>
      <trkpt lat="44.25426" lon="0.69004">
        <ele>102.99829101562</ele>
        <time>2015-11-19T15:44:01Z</time>
      </trkpt>
      <trkpt lat="44.25424" lon="0.69024">
        <ele>102.51770019531</ele>
        <time>2015-11-19T15:44:22Z</time>
      </trkpt>
      <trkpt lat="44.25425" lon="0.69034">
        <ele>99.6337890625</ele>
        <time>2015-11-19T15:44:37Z</time>
      </trkpt>
      <trkpt lat="44.25427" lon="0.69034">
        <ele>101.55639648438</ele>
        <time>2015-11-19T15:44:54Z</time>
      </trkpt>
      <trkpt lat="44.25429" lon="0.69031">
        <ele>101.07568359375</ele>
        <time>2015-11-19T15:45:10Z</time>
      </trkpt>
      <trkpt lat="44.25424" lon="0.6899">
        <ele>99.153076171875</ele>
        <time>2015-11-19T15:45:19Z</time>
      </trkpt>
    </trkseg>
  </trk>
</gpx>